createdAt,value
2022-08-25T00:03:35.855Z,21.19
2022-08-25T00:08:41.337Z,21.31
2022-08-25T00:13:50.355Z,21.37
2022-08-25T00:18:59.536Z,21.31
2022-08-25T00:24:08.471Z,21.25
2022-08-25T00:29:17.479Z,21.19
2022-08-25T00:34:26.530Z,21.06
2022-08-25T00:39:35.485Z,20.94
2022-08-25T00:44:44.349Z,20.81
2022-08-25T00:49:53.369Z,20.81
2022-08-25T00:55:07.889Z,20.81
2022-08-25T01:00:11.332Z,20.81
2022-08-25T01:05:20.461Z,21.12
2022-08-25T01:10:29.652Z,21.5
2022-08-25T01:15:38.967Z,21.94
2022-08-25T01:20:47.959Z,22
2022-08-25T01:25:56.888Z,21.87
2022-08-25T01:41:01.841Z,21.44
2022-08-25T01:46:10.905Z,21.19
2022-08-25T01:51:19.825Z,20.94
2022-08-25T01:56:28.772Z,20.75
2022-08-25T02:01:37.797Z,20.56
2022-08-25T02:11:55.821Z,20.31
2022-08-25T02:17:04.670Z,20.12
2022-08-25T02:22:13.684Z,20
2022-08-25T02:37:40.789Z,19.69
2022-08-25T02:42:49.775Z,19.62
2022-08-25T02:47:58.918Z,19.5
2022-08-25T02:53:07.955Z,19.5
2022-08-25T02:58:16.926Z,19.44
2022-08-25T03:03:26.017Z,19.56
2022-08-25T03:08:35.114Z,19.56
2022-08-25T03:13:44.194Z,19.5
2022-08-25T03:18:53.176Z,19.44
2022-08-25T03:24:02.046Z,19.37
2022-08-25T03:29:11.151Z,19.31
2022-08-25T03:34:20.044Z,19.31
2022-08-25T03:39:29.041Z,19.25
2022-08-25T03:44:38.166Z,19.25
2022-08-25T03:49:47.168Z,19.19
2022-08-25T04:09:50.288Z,18.87
2022-08-25T04:14:59.287Z,18.75
2022-08-25T04:20:08.368Z,18.69
2022-08-25T04:25:17.508Z,18.62
2022-08-25T04:30:26.653Z,18.56
2022-08-25T04:35:35.593Z,18.5
2022-08-25T04:40:47.446Z,18.56
2022-08-25T04:45:56.579Z,18.69
2022-08-25T04:56:04.143Z,18.75
2022-08-25T05:01:13.286Z,18.69
2022-08-25T05:16:19.151Z,18.75
2022-08-25T05:21:28.257Z,18.81
2022-08-25T05:26:37.409Z,18.87
2022-08-25T05:31:50.737Z,19
2022-08-25T05:51:53.271Z,19.31
2022-08-25T05:57:02.439Z,19.44
2022-08-25T06:02:11.519Z,19.62
2022-08-25T06:07:20.535Z,19.81
2022-08-25T06:12:29.585Z,20.06
2022-08-25T06:17:38.633Z,20.31
2022-08-25T06:22:47.811Z,20.44
2022-08-25T06:27:56.852Z,20.69
2022-08-25T06:33:05.854Z,20.81
2022-08-25T06:38:14.991Z,21.06
2022-08-25T06:43:24.063Z,21.25
2022-08-25T06:48:33.088Z,21.44
2022-08-25T06:53:42.121Z,21.56
2022-08-25T07:04:00.502Z,22.06
2022-08-25T07:09:09.673Z,22.31
2022-08-25T07:14:18.699Z,22.5
2022-08-25T07:29:46.034Z,23.25
2022-08-25T07:34:55.132Z,23.5
2022-08-25T07:40:04.714Z,23.75
2022-08-25T07:45:13.669Z,24
2022-08-25T07:50:22.744Z,24.31
2022-08-25T08:00:30.106Z,24.75
2022-08-25T08:05:39.292Z,25
2022-08-25T08:11:03.118Z,25.5
2022-08-25T08:15:57.666Z,25.94
2022-08-25T08:26:05.246Z,26.75
2022-08-25T08:51:32.869Z,27.44
2022-08-25T09:11:35.749Z,28.19
2022-08-25T09:16:44.895Z,27.75
2022-08-25T09:21:53.549Z,27.75
2022-08-25T09:27:02.847Z,27.75
2022-08-25T09:32:11.911Z,28.44
2022-08-25T09:37:21.443Z,29.19
2022-08-25T09:42:30.727Z,29.31
2022-08-25T09:47:39.845Z,29.75
2022-08-25T09:52:53.328Z,30
2022-08-25T09:57:58.071Z,29.81
2022-08-25T10:03:07.243Z,29.94
2022-08-25T10:08:16.236Z,30.25
2022-08-25T10:13:25.380Z,30.81
2022-08-25T10:18:34.953Z,31.44
2022-08-25T10:23:43.991Z,30.88
2022-08-25T10:28:52.986Z,31
2022-08-25T10:34:02.201Z,31.19
2022-08-25T10:39:34.705Z,31.87
2022-08-25T10:44:20.625Z,31.75
2022-08-25T10:49:29.637Z,32.19
2022-08-25T10:54:38.456Z,31.25
2022-08-25T10:59:47.752Z,31.81
2022-08-25T11:04:56.854Z,32.19
2022-08-25T11:10:05.812Z,32.19
2022-08-25T11:15:14.475Z,31.56
2022-08-25T11:20:26.718Z,32.56
2022-08-25T11:25:33.455Z,33.13
2022-08-25T11:30:42.830Z,33.63
2022-08-25T11:35:51.361Z,32.38
2022-08-25T11:41:00.894Z,32.81
2022-08-25T11:46:10.503Z,33.44
2022-08-25T11:51:19.235Z,32.88
2022-08-25T11:56:28.386Z,33.31
2022-08-25T12:01:37.698Z,33.56
2022-08-25T12:16:43.509Z,32.38
2022-08-25T12:21:51.175Z,31.25
2022-08-25T12:27:00.073Z,30.94
2022-08-25T12:32:09.324Z,31.75
2022-08-25T12:37:18.987Z,32.5
2022-08-25T12:42:28.073Z,33.25
2022-08-25T12:47:38.403Z,33.88
2022-08-25T12:52:47.090Z,34.44
2022-08-25T12:57:55.846Z,33.69
2022-08-25T13:03:04.899Z,32.69
2022-08-25T13:08:14.068Z,34
2022-08-25T13:13:22.681Z,33.56
2022-08-25T13:18:31.213Z,32.5
2022-08-25T13:23:39.845Z,31.81
2022-08-25T13:28:50.327Z,31.12
2022-08-25T13:33:57.634Z,30.88
2022-08-25T13:44:06.041Z,33
2022-08-25T13:49:15.230Z,33.44
2022-08-25T13:54:23.918Z,33.13
2022-08-25T13:59:33.356Z,33.94
2022-08-25T14:04:51.022Z,35.38
2022-08-25T14:09:52.331Z,36.25
2022-08-25T14:15:01.401Z,35.75
2022-08-25T14:20:09.922Z,34.31
2022-08-25T14:25:18.916Z,35.13
2022-08-25T14:30:30.885Z,34.75
2022-08-25T14:40:48.214Z,32.19
2022-08-25T14:45:57.094Z,31.5
2022-08-25T14:51:06.051Z,31.19
2022-08-25T14:56:15.031Z,31.06
2022-08-25T15:01:28.591Z,31.25
2022-08-25T15:06:33.272Z,31.06
2022-08-25T15:11:42.780Z,33.44
2022-08-25T15:21:51.575Z,36.19
2022-08-25T15:27:00.745Z,36.06
2022-08-25T15:32:09.778Z,37.31
2022-08-25T15:37:19.235Z,37.25
2022-08-25T15:42:28.402Z,36.81
2022-08-25T15:47:37.681Z,38.38
2022-08-25T15:57:55.897Z,37.44
2022-08-25T16:03:04.611Z,35.56
2022-08-25T16:08:19.155Z,36.19
2022-08-25T16:13:22.509Z,35.38
2022-08-25T16:18:31.621Z,35.56
2022-08-25T16:23:40.675Z,35.38
2022-08-25T16:28:49.763Z,35.38
2022-08-25T16:33:58.858Z,35.94
2022-08-25T16:39:09.829Z,35
2022-08-25T16:44:17.107Z,34.13
2022-08-25T16:49:26.097Z,33.38
2022-08-25T16:54:35.009Z,32.88
2022-08-25T16:59:44.124Z,32.44
2022-08-25T17:10:01.999Z,31.69
2022-08-25T17:15:10.908Z,31.5
2022-08-25T17:20:19.786Z,31.25
2022-08-25T17:30:37.584Z,30.25
2022-08-25T17:35:46.593Z,29.81
2022-08-25T17:40:55.529Z,29.44
2022-08-25T17:46:04.517Z,29
2022-08-25T17:51:13.306Z,28.62
2022-08-25T17:56:22.277Z,28.19
2022-08-25T18:01:31.263Z,27.75
2022-08-25T18:21:33.504Z,26.5
2022-08-25T18:26:42.555Z,26.19
2022-08-25T18:31:52.017Z,25.88
2022-08-25T18:37:00.311Z,25.69
2022-08-25T18:52:05.344Z,25
2022-08-25T18:57:14.370Z,24.87
2022-08-25T19:02:23.652Z,24.75
2022-08-25T19:07:32.510Z,24.63
2022-08-25T19:12:41.327Z,24.37
2022-08-25T19:17:50.428Z,24.25
2022-08-25T19:22:59.424Z,24.12
2022-08-25T19:28:08.424Z,24
2022-08-25T19:33:34.417Z,23.87
2022-08-25T19:38:33.303Z,23.75
2022-08-25T19:43:35.206Z,23.62
2022-08-25T19:48:44.165Z,23.56
2022-08-25T19:53:54.859Z,23.5
2022-08-25T19:59:02.407Z,23.44
2022-08-25T20:04:11.374Z,23.31
2022-08-25T20:09:20.994Z,23.19
2022-08-25T20:14:29.202Z,23.12
2022-08-25T20:19:38.207Z,23
2022-08-25T20:24:47.329Z,22.94
2022-08-25T20:29:56.343Z,22.87
2022-08-25T20:35:05.270Z,22.81
2022-08-25T20:40:14.327Z,22.75
2022-08-25T20:45:23.318Z,22.69
2022-08-25T20:50:32.356Z,22.69
2022-08-25T20:55:42.435Z,22.69
2022-08-25T21:00:50.720Z,22.62
2022-08-25T21:05:59.728Z,22.5
2022-08-25T21:26:03.105Z,22.37
2022-08-25T21:31:12.195Z,22.5
2022-08-25T21:36:21.286Z,22.5
2022-08-25T21:46:28.118Z,22.37
2022-08-25T21:51:38.116Z,22.31
2022-08-25T21:56:46.148Z,22.25
2022-08-25T22:01:55.324Z,22.19
2022-08-25T22:07:04.344Z,22.13
2022-08-25T22:27:11.392Z,21.81
2022-08-25T22:32:16.337Z,21.75
2022-08-25T22:37:25.326Z,21.75
2022-08-25T22:42:34.341Z,21.75
2022-08-25T22:47:43.447Z,21.87
2022-08-25T23:02:48.458Z,21.5
2022-08-25T23:07:57.539Z,21.56
2022-08-25T23:13:07.088Z,21.69
2022-08-25T23:18:15.574Z,21.62
2022-08-25T23:23:24.537Z,21.44
2022-08-25T23:28:33.502Z,21.25
2022-08-25T23:43:38.458Z,20.75
2022-08-25T23:48:47.521Z,20.62
2022-08-25T23:53:56.418Z,20.37
2022-08-25T23:59:05.523Z,20
